Flight Track Log - Related Links

Times and Time Zones

All times are in EDT time to prevent confusion due to time zone crossing. See the KAP550 flight status page for this flight to view local times or setup timezone preferences in your user account.

Time Position Orientation Groundspeed Altitude Reporting Facility
EDT Latitude Longitude Course Direction KTS MPH feet Rate Location/Type
Wed 02:36:15 PM 43.1278 -74.1328 331° Northwest 151 174 7,900  Level Boston Center
Wed 02:37:16 PM 43.1628 -74.1594 331° Northwest 151 174 8,400 595 Climbing Boston Center
Wed 02:38:16 PM 43.1978 -74.1831 334° Northwest 140 161 9,100 700 Climbing Boston Center
Wed 02:39:16 PM 43.2328 -74.2097 331° Northwest 140 161 9,800 763 Climbing Boston Center
Wed 02:40:14 PM 43.2700 -74.2364 332° Northwest 146 168 10,600 403 Climbing Boston Center
Wed 02:41:15 PM 43.3133 -74.2636 335° Northwest 156 180 10,600 99 Level Boston Center
Wed 02:42:15 PM 43.3544 -74.2933 332° Northwest 162 186 10,800 250 Climbing Boston Center
Wed 02:43:15 PM 43.3917 -74.3172 335° Northwest 162 186 11,100 344 Climbing Boston Center
Wed 02:44:17 PM 43.4372 -74.3300 348° North 162 186 11,500 252 Climbing Boston Center
Wed 02:45:14 PM 43.4850 -74.3403 351° North 162 186 11,600 51 Climbing Boston Center
Wed 02:46:15 PM 43.5328 -74.3561 346° North 168 193 11,600  Level Boston Center
Wed 02:47:15 PM 43.5803 -74.3689 349° North 173 199 11,600  Level Boston Center
Wed 02:48:14 PM 43.6256 -74.4019 332° Northwest 173 199 11,600  Level Boston Center
Wed 02:49:14 PM 43.6711 -74.4322 334° Northwest 178 205 11,600  Level Boston Center
Wed 02:50:15 PM 43.7161 -74.4681 330° Northwest 178 205 11,600  Level Boston Center
Wed 02:51:15 PM 43.7594 -74.4983 333° Northwest 178 205 11,600  Level Boston Center
Wed 02:52:17 PM 43.8047 -74.5314 332° Northwest 178 205 11,600  Level Boston Center
Wed 02:53:15 PM 43.8500 -74.5589 336° Northwest 178 205 11,600  Level Boston Center
Wed 02:54:15 PM 43.8953 -74.5894 334° Northwest 178 205 11,600  Level Boston Center
Wed 02:55:14 PM 43.9450 -74.6056 347° North 178 205 11,600  Level Boston Center
Wed 02:56:15 PM 43.9906 -74.6189 348° North 173 199 11,600  Level Boston Center
Wed 02:57:16 PM 44.0383 -74.6350 346° North 173 199 11,600  Level Boston Center
Wed 02:58:15 PM 44.0881 -74.6456 351° North 173 199 11,600 -100 Level Boston Center
Wed 02:59:16 PM 44.1378 -74.6589 349° North 173 199 11,400 -496 Descending Boston Center
Wed 03:00:16 PM 44.1917 -74.6753 348° North 185 213 10,600 -814 Descending Boston Center
Wed 03:01:14 PM 44.2475 -74.7006 342° North 196 226 9,800 -750 Descending Boston Center
Wed 03:02:16 PM 44.3033 -74.7203 346° North 201 231 9,100 -750 Descending Boston Center
Wed 03:03:14 PM 44.3614 -74.7342 350° North 201 231 8,300 -814 Descending Boston Center
Wed 03:04:14 PM 44.4175 -74.7478 350° North 201 231 7,500 -744 Descending Boston Center
Wed 03:05:15 PM 44.4756 -74.7589 352° North 201 231 6,800 -639 Descending Boston Center
Wed 03:06:16 PM 44.5336 -74.7728 350° North 201 231 6,200 -590 Descending Boston Center
Wed 03:07:17 PM 44.5878 -74.7778 356° North 201 231 5,600 -864 Descending Boston Center
Wed 03:08:14 PM 44.6458 -74.7919 350° North 201 231 4,500 -1,158 Descending Boston Center

Login

Don't have an account? Register now (free) for customized features, flight alerts, and more!